首页
METAR-TAF:

METAR-TAF

机场 :

贝拉库拉, 不列颠哥伦比亚, 加拿大

纬度: 52-23N, 经度: 126-35W, 海拔: 35米

当前天气观测

该预报发布于35分钟前的00:00 UTC
风速10节,风向西转西南,有时为17节阵风,在西南西转西北之间变化
温度 18°C
湿度 52%
气压 1016 hPa
能見度: 24.1公里
散云层高于4000英尺, 塔状积云.
多云层高于26000英尺

METAR: CYBD 170000Z 24010G17KT 220V290 15SM SCT040TCU BKN260 18/08 A2999 RMK TCU4CI2 SLP157 DENSITY ALT 500FT

时间: 17:35 (00:35 UTC)


TAF: 丢失

超过4000个机场的气象观测和天气预报(METAR&TAF报告)。

可查询的气象台以黄色和红色小点在地图上表示。

将鼠标移到小点上方,可查看气象台名称。

然后点击查看天气观测和预报。

如需切换地图:点击带黑十字的绿色按钮放大地图;点击带横线的绿色按钮缩小地图;或者点击绿色箭头查看邻近地区的地图。


METAR-TAF: